P&o Nedlloyd Pantanal — DDIZ — position and weather

sailwx.info

Track history (hours):
 
Tides and Currents Weather Stations Pressure Air Temp Water Temp Dewpoint Dewpoint Depression Visibility Wind Speed Wind Dir Waves Ship Positions

P&o Nedlloyd Pantanal

Last reported at 2015-Apr-20 14:33 UTC. Time now 2015-May-04 22:05 UTC.
Position N 01°18' E 104°04'.
Warning: this ship's position is 14 days out of date.

Length 207 m; draft 10.9 m.

Type: Ship (hazmat cat A). MMSI: 218646000.

Date/timePositionNaut miles runAvg speedWind from/ knotsBaromVisibWave heightAir tempDewpointWater temp
2015-Apr-20 14:33N 01°18' E 104°04'0 0.1
2015-Apr-20 13:33N 01°18' E 104°04'0 0.1
2015-Apr-20 12:33N 01°18' E 104°04'0 0.1
2015-Apr-20 11:33N 01°18' E 104°04'0 0.0
2015-Apr-20 10:30N 01°18' E 104°04'0 0.1
2015-Apr-20 09:33N 01°18' E 104°04'0 0.1
2015-Apr-20 08:33N 01°18' E 104°05'0 0.1
2015-Apr-20 07:33N 01°18' E 104°05'0 0.1
2015-Apr-20 06:28N 01°18' E 104°04'0 0.0
2015-Apr-20 05:32N 01°18' E 104°04'0 0.1
2015-Apr-20 04:33N 01°18' E 104°04'0 0.0
2015-Apr-20 03:32N 01°18' E 104°04'1 0.7
2015-Apr-20 02:33N 01°18' E 104°05'4 2.6
2015-Apr-20 01:11N 01°15' E 104°03'5 8.2
2015-Apr-20 00:32N 01°14' E 103°57'  
2015-Apr-10 23:33N 01°39' E 102°56'3811.6
2015-Apr-10 20:19N 01°15' E 103°25'2910.0
2015-Apr-10 17:25N 01°14' E 103°54'2 2.5
2015-Apr-10 16:33N 01°16' E 103°53'0 0.0
2015-Apr-10 15:33N 01°16' E 103°53'0 0.0
2015-Apr-10 14:33N 01°16' E 103°53'  
Track history (hours):
 
Tides and Currents Weather Stations Pressure Air Temp Water Temp Dewpoint Dewpoint Depression Visibility Wind Speed Wind Dir Waves Ship Positions

P&o Nedlloyd Pantanal

Last reported at 2015-Apr-20 14:33 UTC. Time now 2015-May-04 22:05 UTC.
Position N 01°18' E 104°04'.
Warning: this ship's position is 14 days out of date.

Length 207 m; draft 10.9 m.

Type: Ship (hazmat cat A). MMSI: 218646000.

Date/timePositionNaut miles runAvg speedWind from/ knotsBaromVisibWave heightAir tempDewpointWater temp
2015-Apr-20 14:33N 01°18' E 104°04'0 0.1
2015-Apr-20 13:33N 01°18' E 104°04'0 0.1
2015-Apr-20 12:33N 01°18' E 104°04'0 0.1
2015-Apr-20 11:33N 01°18' E 104°04'0 0.0
2015-Apr-20 10:30N 01°18' E 104°04'0 0.1
2015-Apr-20 09:33N 01°18' E 104°04'0 0.1
2015-Apr-20 08:33N 01°18' E 104°05'0 0.1
2015-Apr-20 07:33N 01°18' E 104°05'0 0.1
2015-Apr-20 06:28N 01°18' E 104°04'0 0.0
2015-Apr-20 05:32N 01°18' E 104°04'0 0.1
2015-Apr-20 04:33N 01°18' E 104°04'0 0.0
2015-Apr-20 03:32N 01°18' E 104°04'1 0.7
2015-Apr-20 02:33N 01°18' E 104°05'4 2.6
2015-Apr-20 01:11N 01°15' E 104°03'5 8.2
2015-Apr-20 00:32N 01°14' E 103°57'  
2015-Apr-10 23:33N 01°39' E 102°56'3811.6
2015-Apr-10 20:19N 01°15' E 103°25'2910.0
2015-Apr-10 17:25N 01°14' E 103°54'2 2.5
2015-Apr-10 16:33N 01°16' E 103°53'0 0.0
2015-Apr-10 15:33N 01°16' E 103°53'0 0.0
2015-Apr-10 14:33N 01°16' E 103°53'  

Dump ship's entire track history